KNTU/NTU METAR and TAF weather

Enter ICAO airport designator
Station Type Date Time Source
KNTU METAR 2019/12/06 01:56 UTC NOAA

KNTU 060156Z 00000KT 10SM CLR 03/M03 A3015 RMK AO2 SLP212 T00281028


Station Type Date Time Source
KNTU Decoded METAR 2019/12/06 01:56 UTC NOAA

OCEANA, NAVAL AIR STATION, VA, United States (KNTU) 36-49N 076-02W 6M
Dec 05, 2019 - 08:56 PM EST / 2019.12.06 0156 UTC
Wind: Calm:0
Visibility: 10 mile(s):0
Sky conditions: clear
Temperature: 37.0 F (2.8 C)
Dew Point: 27.0 F (-2.8 C)
Relative Humidity: 66%
Pressure (altimeter): 30.15 in. Hg (1020 hPa)
ob: KNTU 060156Z 00000KT 10SM CLR 03/M03 A3015 RMK AO2 SLP212 T00281028
cycle: 2

Station Type Date Time Source
KNTU TAF 2019/12/05 23:03 UTC NOAA

TAF KNTU 0523/0623 VRB05KT 9999 FEW250 QNH3004INS
FM061600 21012G20KT 9999 SCT050 BKN100 OVC160 QNH3015INS T04/0610Z T12/0619Z FN20051

Example: see airport list